Quakake, Pennsylvania
Current Conditions -  °F | °C
As of 12:15 PM on Friday 24 Oct 2014 (Local Time) from KHZL Reporting Station
Scattered Clouds Scattered Clouds  
Wind Chill: 59°   Ceiling: Unl
Heat Index: 59°   Visibility: 10mi
Dew Point: 43°   Wind: 14mph
Humidity: 55%   Direction: 330°NNW
Pressure: 29.92"   Gusts: 23mph
Location:  40.85°N, 76.04°W
Report Text: KHZL 241615Z AUTO 33012G20KT 10SM SCT036 15/06 A2992 RMK AO2
Loading
Personal Weather Stations






























Interactive Weather Map
Tropical Storm Tracking
New forecast layout! Learn more

10-Day Weather Forecast

Advertisements
Track Severe Weather on mobile